sensor_id;sensor_type;location;lat;lon;timestamp;P1;durP1;ratioP1;P2;durP2;ratioP2
41739;SDS011;27422;52.444;13.300;2023-04-02T00:08:54;5.38;;;2.38;;
41739;SDS011;27422;52.444;13.300;2023-04-02T00:11:29;4.40;;;2.50;;
41739;SDS011;27422;52.444;13.300;2023-04-02T00:14:00;7.80;;;3.50;;
41739;SDS011;27422;52.444;13.300;2023-04-02T00:16:28;7.43;;;3.35;;
41739;SDS011;27422;52.444;13.300;2023-04-02T00:18:54;5.75;;;3.20;;
41739;SDS011;27422;52.444;13.300;2023-04-02T00:23:54;5.30;;;2.88;;
41739;SDS011;27422;52.444;13.300;2023-04-02T00:26:30;7.45;;;3.20;;
41739;SDS011;27422;52.444;13.300;2023-04-02T00:28:57;5.25;;;2.65;;
41739;SDS011;27422;52.444;13.300;2023-04-02T00:31:24;4.45;;;2.20;;
41739;SDS011;27422;52.444;13.300;2023-04-02T00:33:50;5.82;;;2.67;;
41739;SDS011;27422;52.444;13.300;2023-04-02T00:36:17;5.75;;;2.65;;
41739;SDS011;27422;52.444;13.300;2023-04-02T00:38:44;6.47;;;2.40;;
41739;SDS011;27422;52.444;13.300;2023-04-02T00:41:12;5.03;;;2.40;;
41739;SDS011;27422;52.444;13.300;2023-04-02T00:43:41;5.18;;;2.40;;
41739;SDS011;27422;52.444;13.300;2023-04-02T00:46:14;5.25;;;2.50;;
41739;SDS011;27422;52.444;13.300;2023-04-02T00:48:58;6.25;;;2.20;;
41739;SDS011;27422;52.444;13.300;2023-04-02T00:51:35;3.78;;;2.17;;
41739;SDS011;27422;52.444;13.300;2023-04-02T00:54:03;5.72;;;2.40;;
41739;SDS011;27422;52.444;13.300;2023-04-02T00:56:31;4.53;;;2.45;;
41739;SDS011;27422;52.444;13.300;2023-04-02T00:59:01;6.28;;;2.67;;
41739;SDS011;27422;52.444;13.300;2023-04-02T01:01:32;5.25;;;2.65;;
41739;SDS011;27422;52.444;13.300;2023-04-02T01:04:03;7.68;;;2.83;;
41739;SDS011;27422;52.444;13.300;2023-04-02T01:06:33;6.53;;;2.65;;
41739;SDS011;27422;52.444;13.300;2023-04-02T01:20:09;5.30;;;2.53;;
41739;SDS011;27422;52.444;13.300;2023-04-02T01:25:42;6.05;;;2.03;;
41739;SDS011;27422;52.444;13.300;2023-04-02T01:28:17;7.60;;;2.33;;
41739;SDS011;27422;52.444;13.300;2023-04-02T01:30:48;4.72;;;2.30;;
41739;SDS011;27422;52.444;13.300;2023-04-02T01:33:16;3.70;;;2.15;;
41739;SDS011;27422;52.444;13.300;2023-04-02T01:35:42;5.70;;;2.60;;
41739;SDS011;27422;52.444;13.300;2023-04-02T01:38:15;5.32;;;2.30;;
41739;SDS011;27422;52.444;13.300;2023-04-02T01:46:24;4.30;;;2.30;;
41739;SDS011;27422;52.444;13.300;2023-04-02T01:48:54;3.33;;;1.75;;
41739;SDS011;27422;52.444;13.300;2023-04-02T01:51:33;3.75;;;1.95;;
41739;SDS011;27422;52.444;13.300;2023-04-02T01:54:02;5.35;;;2.25;;
41739;SDS011;27422;52.444;13.300;2023-04-02T01:56:28;4.85;;;2.28;;
41739;SDS011;27422;52.444;13.300;2023-04-02T01:58:57;4.68;;;2.17;;
41739;SDS011;27422;52.444;13.300;2023-04-02T02:01:24;5.45;;;2.42;;
41739;SDS011;27422;52.444;13.300;2023-04-02T02:03:52;4.70;;;2.10;;
41739;SDS011;27422;52.444;13.300;2023-04-02T02:06:18;3.90;;;2.00;;
41739;SDS011;27422;52.444;13.300;2023-04-02T02:11:47;5.05;;;2.38;;
41739;SDS011;27422;52.444;13.300;2023-04-02T02:14:23;4.47;;;2.10;;
41739;SDS011;27422;52.444;13.300;2023-04-02T02:16:49;4.57;;;2.00;;
41739;SDS011;27422;52.444;13.300;2023-04-02T02:22:27;4.07;;;1.95;;
41739;SDS011;27422;52.444;13.300;2023-04-02T02:24:55;4.45;;;1.98;;
41739;SDS011;27422;52.444;13.300;2023-04-02T02:30:34;3.97;;;1.70;;
41739;SDS011;27422;52.444;13.300;2023-04-02T02:38:41;3.67;;;1.55;;
41739;SDS011;27422;52.444;13.300;2023-04-02T02:43:54;3.50;;;1.80;;
41739;SDS011;27422;52.444;13.300;2023-04-02T02:46:26;3.13;;;1.50;;
41739;SDS011;27422;52.444;13.300;2023-04-02T02:48:53;3.93;;;1.60;;
41739;SDS011;27422;52.444;13.300;2023-04-02T02:51:22;4.72;;;1.95;;
41739;SDS011;27422;52.444;13.300;2023-04-02T02:53:52;4.55;;;1.50;;
41739;SDS011;27422;52.444;13.300;2023-04-02T02:56:20;5.32;;;1.58;;
41739;SDS011;27422;52.444;13.300;2023-04-02T02:58:46;2.70;;;1.45;;
41739;SDS011;27422;52.444;13.300;2023-04-02T03:01:13;3.03;;;1.35;;
41739;SDS011;27422;52.444;13.300;2023-04-02T03:03:38;3.67;;;1.55;;
41739;SDS011;27422;52.444;13.300;2023-04-02T03:06:08;4.22;;;1.45;;
41739;SDS011;27422;52.444;13.300;2023-04-02T03:08:38;4.25;;;1.65;;
41739;SDS011;27422;52.444;13.300;2023-04-02T03:13:51;3.08;;;1.00;;
41739;SDS011;27422;52.444;13.300;2023-04-02T03:16:27;3.15;;;1.45;;
41739;SDS011;27422;52.444;13.300;2023-04-02T03:19:23;3.17;;;1.20;;
41739;SDS011;27422;52.444;13.300;2023-04-02T03:21:55;3.38;;;1.17;;
41739;SDS011;27422;52.444;13.300;2023-04-02T03:24:38;4.18;;;1.55;;
41739;SDS011;27422;52.444;13.300;2023-04-02T03:29:33;3.60;;;1.15;;
41739;SDS011;27422;52.444;13.300;2023-04-02T03:42:25;2.83;;;1.00;;
41739;SDS011;27422;52.444;13.300;2023-04-02T03:45:26;3.70;;;1.33;;
41739;SDS011;27422;52.444;13.300;2023-04-02T03:47:53;2.53;;;1.20;;
41739;SDS011;27422;52.444;13.300;2023-04-02T03:50:27;3.40;;;1.10;;
41739;SDS011;27422;52.444;13.300;2023-04-02T03:52:58;3.05;;;1.17;;
41739;SDS011;27422;52.444;13.300;2023-04-02T03:55:27;4.78;;;1.35;;
41739;SDS011;27422;52.444;13.300;2023-04-02T04:00:33;2.35;;;1.10;;
41739;SDS011;27422;52.444;13.300;2023-04-02T04:03:12;3.25;;;1.55;;
41739;SDS011;27422;52.444;13.300;2023-04-02T04:11:44;4.85;;;1.70;;
41739;SDS011;27422;52.444;13.300;2023-04-02T04:14:14;3.05;;;1.23;;
41739;SDS011;27422;52.444;13.300;2023-04-02T04:16:46;3.85;;;1.50;;
41739;SDS011;27422;52.444;13.300;2023-04-02T04:21:49;4.70;;;1.58;;
41739;SDS011;27422;52.444;13.300;2023-04-02T04:34:51;3.42;;;1.13;;
41739;SDS011;27422;52.444;13.300;2023-04-02T04:37:24;3.20;;;1.50;;
41739;SDS011;27422;52.444;13.300;2023-04-02T04:39:56;3.42;;;1.40;;
41739;SDS011;27422;52.444;13.300;2023-04-02T04:42:26;3.85;;;1.58;;
41739;SDS011;27422;52.444;13.300;2023-04-02T04:47:28;1.60;;;0.75;;
41739;SDS011;27422;52.444;13.300;2023-04-02T04:49:59;4.30;;;1.55;;
41739;SDS011;27422;52.444;13.300;2023-04-02T04:52:31;3.10;;;1.27;;
41739;SDS011;27422;52.444;13.300;2023-04-02T04:54:59;3.35;;;1.40;;
41739;SDS011;27422;52.444;13.300;2023-04-02T04:57:34;2.75;;;1.20;;
41739;SDS011;27422;52.444;13.300;2023-04-02T05:00:11;2.60;;;1.02;;
41739;SDS011;27422;52.444;13.300;2023-04-02T05:02:44;2.65;;;1.20;;
41739;SDS011;27422;52.444;13.300;2023-04-02T05:05:15;5.57;;;1.55;;
41739;SDS011;27422;52.444;13.300;2023-04-02T05:07:55;3.92;;;1.20;;
41739;SDS011;27422;52.444;13.300;2023-04-02T05:12:58;2.92;;;1.10;;
41739;SDS011;27422;52.444;13.300;2023-04-02T05:15:31;4.18;;;1.10;;
41739;SDS011;27422;52.444;13.300;2023-04-02T05:20:53;4.32;;;1.48;;
41739;SDS011;27422;52.444;13.300;2023-04-02T05:23:27;3.08;;;1.33;;
41739;SDS011;27422;52.444;13.300;2023-04-02T05:25:57;3.50;;;1.35;;
41739;SDS011;27422;52.444;13.300;2023-04-02T05:28:31;3.03;;;1.05;;
41739;SDS011;27422;52.444;13.300;2023-04-02T05:30:58;6.55;;;1.58;;
41739;SDS011;27422;52.444;13.300;2023-04-02T05:33:29;3.67;;;1.65;;
41739;SDS011;27422;52.444;13.300;2023-04-02T05:38:28;3.63;;;1.40;;
41739;SDS011;27422;52.444;13.300;2023-04-02T05:43:36;5.22;;;1.40;;
41739;SDS011;27422;52.444;13.300;2023-04-02T05:46:05;6.10;;;1.60;;
41739;SDS011;27422;52.444;13.300;2023-04-02T05:48:39;3.13;;;1.40;;
41739;SDS011;27422;52.444;13.300;2023-04-02T05:51:08;4.68;;;1.80;;
41739;SDS011;27422;52.444;13.300;2023-04-02T05:53:39;3.40;;;1.40;;
41739;SDS011;27422;52.444;13.300;2023-04-02T05:56:14;6.43;;;1.60;;
41739;SDS011;27422;52.444;13.300;2023-04-02T05:59:28;3.90;;;1.50;;
41739;SDS011;27422;52.444;13.300;2023-04-02T06:04:46;5.40;;;1.60;;
41739;SDS011;27422;52.444;13.300;2023-04-02T06:07:18;4.25;;;1.40;;
41739;SDS011;27422;52.444;13.300;2023-04-02T06:12:31;3.17;;;1.40;;
41739;SDS011;27422;52.444;13.300;2023-04-02T06:15:02;4.28;;;1.20;;
41739;SDS011;27422;52.444;13.300;2023-04-02T06:17:27;2.85;;;1.38;;
41739;SDS011;27422;52.444;13.300;2023-04-02T06:19:53;4.57;;;1.70;;
41739;SDS011;27422;52.444;13.300;2023-04-02T06:24:48;6.50;;;1.60;;
41739;SDS011;27422;52.444;13.300;2023-04-02T06:27:17;2.97;;;1.10;;
41739;SDS011;27422;52.444;13.300;2023-04-02T06:29:44;6.07;;;1.40;;
41739;SDS011;27422;52.444;13.300;2023-04-02T06:32:10;2.83;;;1.13;;
41739;SDS011;27422;52.444;13.300;2023-04-02T06:34:39;3.90;;;1.00;;
41739;SDS011;27422;52.444;13.300;2023-04-02T06:39:45;2.85;;;1.00;;
41739;SDS011;27422;52.444;13.300;2023-04-02T06:42:21;3.08;;;1.02;;
41739;SDS011;27422;52.444;13.300;2023-04-02T06:44:49;3.15;;;0.82;;
41739;SDS011;27422;52.444;13.300;2023-04-02T06:49:48;1.75;;;0.60;;
41739;SDS011;27422;52.444;13.300;2023-04-02T06:52:22;1.70;;;0.90;;
41739;SDS011;27422;52.444;13.300;2023-04-02T06:54:51;2.78;;;1.05;;
41739;SDS011;27422;52.444;13.300;2023-04-02T06:57:16;4.28;;;1.15;;
41739;SDS011;27422;52.444;13.300;2023-04-02T06:59:42;3.05;;;0.90;;
41739;SDS011;27422;52.444;13.300;2023-04-02T07:04:54;2.58;;;1.00;;
41739;SDS011;27422;52.444;13.300;2023-04-02T07:07:25;3.33;;;0.70;;
41739;SDS011;27422;52.444;13.300;2023-04-02T07:09:50;2.17;;;0.85;;
41739;SDS011;27422;52.444;13.300;2023-04-02T07:12:17;2.90;;;0.80;;
41739;SDS011;27422;52.444;13.300;2023-04-02T07:14:46;3.20;;;1.00;;
41739;SDS011;27422;52.444;13.300;2023-04-02T07:17:15;2.40;;;0.93;;
41739;SDS011;27422;52.444;13.300;2023-04-02T07:19:41;2.95;;;0.70;;
41739;SDS011;27422;52.444;13.300;2023-04-02T07:24:35;2.35;;;0.65;;
41739;SDS011;27422;52.444;13.300;2023-04-02T07:27:00;2.03;;;0.60;;
41739;SDS011;27422;52.444;13.300;2023-04-02T07:29:25;5.68;;;1.08;;
41739;SDS011;27422;52.444;13.300;2023-04-02T07:31:51;2.63;;;1.00;;
41739;SDS011;27422;52.444;13.300;2023-04-02T07:34:17;1.90;;;0.70;;
41739;SDS011;27422;52.444;13.300;2023-04-02T07:36:43;2.65;;;1.00;;
41739;SDS011;27422;52.444;13.300;2023-04-02T07:39:08;2.13;;;0.80;;
41739;SDS011;27422;52.444;13.300;2023-04-02T07:41:49;1.75;;;0.60;;
41739;SDS011;27422;52.444;13.300;2023-04-02T07:44:24;1.52;;;0.63;;
41739;SDS011;27422;52.444;13.300;2023-04-02T07:46:49;2.83;;;0.93;;
41739;SDS011;27422;52.444;13.300;2023-04-02T07:49:15;2.20;;;0.70;;
41739;SDS011;27422;52.444;13.300;2023-04-02T07:51:41;1.83;;;0.80;;
41739;SDS011;27422;52.444;13.300;2023-04-02T07:54:07;3.33;;;0.95;;
41739;SDS011;27422;52.444;13.300;2023-04-02T07:56:34;4.67;;;1.00;;
41739;SDS011;27422;52.444;13.300;2023-04-02T07:59:00;4.72;;;0.82;;
41739;SDS011;27422;52.444;13.300;2023-04-02T08:01:26;2.75;;;0.88;;
41739;SDS011;27422;52.444;13.300;2023-04-02T08:03:53;1.02;;;0.60;;
41739;SDS011;27422;52.444;13.300;2023-04-02T08:06:20;1.85;;;0.63;;
41739;SDS011;27422;52.444;13.300;2023-04-02T08:08:46;2.05;;;0.60;;
41739;SDS011;27422;52.444;13.300;2023-04-02T08:11:11;4.18;;;1.10;;
41739;SDS011;27422;52.444;13.300;2023-04-02T08:13:37;4.30;;;0.82;;
41739;SDS011;27422;52.444;13.300;2023-04-02T08:16:03;1.85;;;0.77;;
41739;SDS011;27422;52.444;13.300;2023-04-02T08:18:29;3.33;;;1.15;;
41739;SDS011;27422;52.444;13.300;2023-04-02T08:20:55;2.65;;;0.77;;
41739;SDS011;27422;52.444;13.300;2023-04-02T08:23:21;1.60;;;0.65;;
41739;SDS011;27422;52.444;13.300;2023-04-02T08:25:47;2.45;;;0.90;;
41739;SDS011;27422;52.444;13.300;2023-04-02T08:28:15;2.08;;;0.73;;
41739;SDS011;27422;52.444;13.300;2023-04-02T08:30:41;4.68;;;1.70;;
41739;SDS011;27422;52.444;13.300;2023-04-02T08:33:06;2.80;;;0.80;;
41739;SDS011;27422;52.444;13.300;2023-04-02T08:35:32;3.65;;;0.70;;
41739;SDS011;27422;52.444;13.300;2023-04-02T08:37:58;2.20;;;0.77;;
41739;SDS011;27422;52.444;13.300;2023-04-02T08:40:37;2.45;;;0.70;;
41739;SDS011;27422;52.444;13.300;2023-04-02T08:43:15;3.30;;;1.05;;
41739;SDS011;27422;52.444;13.300;2023-04-02T08:46:00;2.90;;;0.85;;
41739;SDS011;27422;52.444;13.300;2023-04-02T08:48:32;2.10;;;0.80;;
41739;SDS011;27422;52.444;13.300;2023-04-02T08:50:59;2.72;;;0.60;;
41739;SDS011;27422;52.444;13.300;2023-04-02T08:53:28;2.38;;;0.60;;
41739;SDS011;27422;52.444;13.300;2023-04-02T08:55:59;2.90;;;0.80;;
41739;SDS011;27422;52.444;13.300;2023-04-02T08:58:39;3.17;;;0.83;;
41739;SDS011;27422;52.444;13.300;2023-04-02T09:01:06;5.22;;;1.25;;
41739;SDS011;27422;52.444;13.300;2023-04-02T09:03:40;1.58;;;0.80;;
41739;SDS011;27422;52.444;13.300;2023-04-02T09:06:08;2.03;;;0.90;;
41739;SDS011;27422;52.444;13.300;2023-04-02T09:08:36;1.90;;;0.80;;
41739;SDS011;27422;52.444;13.300;2023-04-02T09:13:32;2.92;;;0.90;;
41739;SDS011;27422;52.444;13.300;2023-04-02T09:18:34;2.30;;;1.08;;
41739;SDS011;27422;52.444;13.300;2023-04-02T09:23:44;3.08;;;0.93;;
41739;SDS011;27422;52.444;13.300;2023-04-02T09:26:32;3.65;;;0.90;;
41739;SDS011;27422;52.444;13.300;2023-04-02T09:29:11;3.92;;;0.90;;
41739;SDS011;27422;52.444;13.300;2023-04-02T09:37:13;3.97;;;0.90;;
41739;SDS011;27422;52.444;13.300;2023-04-02T09:39:39;3.63;;;1.08;;
41739;SDS011;27422;52.444;13.300;2023-04-02T09:42:06;2.08;;;0.73;;
41739;SDS011;27422;52.444;13.300;2023-04-02T09:44:32;2.60;;;0.90;;
41739;SDS011;27422;52.444;13.300;2023-04-02T09:47:03;3.38;;;0.90;;
41739;SDS011;27422;52.444;13.300;2023-04-02T09:49:30;3.47;;;1.00;;
41739;SDS011;27422;52.444;13.300;2023-04-02T09:55:04;3.13;;;0.82;;
41739;SDS011;27422;52.444;13.300;2023-04-02T09:57:41;1.77;;;0.60;;
41739;SDS011;27422;52.444;13.300;2023-04-02T10:00:14;2.10;;;0.63;;
41739;SDS011;27422;52.444;13.300;2023-04-02T10:02:45;2.28;;;0.60;;
41739;SDS011;27422;52.444;13.300;2023-04-02T10:05:18;2.83;;;0.68;;
41739;SDS011;27422;52.444;13.300;2023-04-02T10:07:46;2.08;;;0.82;;
41739;SDS011;27422;52.444;13.300;2023-04-02T10:10:17;2.90;;;0.68;;
41739;SDS011;27422;52.444;13.300;2023-04-02T10:15:48;5.03;;;0.85;;
41739;SDS011;27422;52.444;13.300;2023-04-02T10:18:24;3.20;;;1.02;;
41739;SDS011;27422;52.444;13.300;2023-04-02T10:20:51;3.58;;;1.10;;
41739;SDS011;27422;52.444;13.300;2023-04-02T10:23:18;2.42;;;0.70;;
41739;SDS011;27422;52.444;13.300;2023-04-02T10:25:48;1.88;;;0.60;;
41739;SDS011;27422;52.444;13.300;2023-04-02T10:31:23;1.83;;;0.60;;
41739;SDS011;27422;52.444;13.300;2023-04-02T10:33:54;2.28;;;0.70;;
41739;SDS011;27422;52.444;13.300;2023-04-02T10:36:29;1.90;;;0.60;;
41739;SDS011;27422;52.444;13.300;2023-04-02T10:39:08;2.50;;;0.70;;
41739;SDS011;27422;52.444;13.300;2023-04-02T10:41:43;2.60;;;0.70;;
41739;SDS011;27422;52.444;13.300;2023-04-02T10:50:03;3.65;;;0.98;;
41739;SDS011;27422;52.444;13.300;2023-04-02T10:52:46;2.88;;;0.63;;
41739;SDS011;27422;52.444;13.300;2023-04-02T10:55:16;3.15;;;0.80;;
41739;SDS011;27422;52.444;13.300;2023-04-02T10:57:44;2.90;;;0.60;;
41739;SDS011;27422;52.444;13.300;2023-04-02T11:11:02;3.75;;;0.98;;
41739;SDS011;27422;52.444;13.300;2023-04-02T11:16:25;3.97;;;0.70;;
41739;SDS011;27422;52.444;13.300;2023-04-02T11:21:45;2.92;;;0.70;;
41739;SDS011;27422;52.444;13.300;2023-04-02T11:29:32;2.53;;;0.55;;
41739;SDS011;27422;52.444;13.300;2023-04-02T11:32:14;2.10;;;0.65;;
41739;SDS011;27422;52.444;13.300;2023-04-02T11:37:56;1.92;;;0.60;;
41739;SDS011;27422;52.444;13.300;2023-04-02T11:42:36;3.38;;;0.95;;
41739;SDS011;27422;52.444;13.300;2023-04-02T11:48:33;3.28;;;0.88;;
41739;SDS011;27422;52.444;13.300;2023-04-02T11:50:41;2.58;;;0.80;;
41739;SDS011;27422;52.444;13.300;2023-04-02T11:55:40;2.72;;;0.75;;
41739;SDS011;27422;52.444;13.300;2023-04-02T12:05:56;1.33;;;0.50;;
41739;SDS011;27422;52.444;13.300;2023-04-02T12:08:29;2.47;;;0.80;;
41739;SDS011;27422;52.444;13.300;2023-04-02T12:10:59;3.38;;;0.80;;
41739;SDS011;27422;52.444;13.300;2023-04-02T12:13:46;1.60;;;0.60;;
41739;SDS011;27422;52.444;13.300;2023-04-02T12:16:13;2.35;;;0.75;;
41739;SDS011;27422;52.444;13.300;2023-04-02T12:18:41;2.87;;;0.73;;
41739;SDS011;27422;52.444;13.300;2023-04-02T12:21:08;4.63;;;1.17;;
41739;SDS011;27422;52.444;13.300;2023-04-02T12:23:40;3.85;;;0.75;;
41739;SDS011;27422;52.444;13.300;2023-04-02T12:26:31;2.80;;;0.88;;
41739;SDS011;27422;52.444;13.300;2023-04-02T12:29:14;4.18;;;1.00;;
41739;SDS011;27422;52.444;13.300;2023-04-02T12:31:44;2.45;;;0.90;;
41739;SDS011;27422;52.444;13.300;2023-04-02T12:34:13;2.88;;;0.88;;
41739;SDS011;27422;52.444;13.300;2023-04-02T12:36:49;3.50;;;1.10;;
41739;SDS011;27422;52.444;13.300;2023-04-02T12:39:19;3.03;;;0.80;;
41739;SDS011;27422;52.444;13.300;2023-04-02T12:41:45;2.55;;;0.80;;
41739;SDS011;27422;52.444;13.300;2023-04-02T12:44:14;1.70;;;0.60;;
41739;SDS011;27422;52.444;13.300;2023-04-02T12:46:41;4.50;;;0.80;;
41739;SDS011;27422;52.444;13.300;2023-04-02T12:51:56;3.65;;;0.70;;
41739;SDS011;27422;52.444;13.300;2023-04-02T12:54:22;3.25;;;0.70;;
41739;SDS011;27422;52.444;13.300;2023-04-02T12:56:48;2.25;;;0.75;;
41739;SDS011;27422;52.444;13.300;2023-04-02T12:59:56;3.65;;;0.80;;
41739;SDS011;27422;52.444;13.300;2023-04-02T13:02:26;2.75;;;0.70;;
41739;SDS011;27422;52.444;13.300;2023-04-02T13:04:57;3.08;;;0.65;;
41739;SDS011;27422;52.444;13.300;2023-04-02T13:07:26;3.17;;;0.70;;
41739;SDS011;27422;52.444;13.300;2023-04-02T13:09:55;1.85;;;0.70;;
41739;SDS011;27422;52.444;13.300;2023-04-02T13:12:35;3.70;;;0.68;;
41739;SDS011;27422;52.444;13.300;2023-04-02T13:15:04;2.50;;;0.60;;
41739;SDS011;27422;52.444;13.300;2023-04-02T13:22:52;2.85;;;0.80;;
41739;SDS011;27422;52.444;13.300;2023-04-02T13:25:17;2.40;;;0.57;;
41739;SDS011;27422;52.444;13.300;2023-04-02T13:27:42;2.40;;;0.63;;
41739;SDS011;27422;52.444;13.300;2023-04-02T13:30:08;3.50;;;0.80;;
41739;SDS011;27422;52.444;13.300;2023-04-02T13:32:34;2.17;;;0.60;;
41739;SDS011;27422;52.444;13.300;2023-04-02T13:35:00;3.40;;;0.70;;
41739;SDS011;27422;52.444;13.300;2023-04-02T13:37:25;2.10;;;0.50;;
41739;SDS011;27422;52.444;13.300;2023-04-02T13:39:51;4.50;;;0.82;;
41739;SDS011;27422;52.444;13.300;2023-04-02T13:42:16;2.85;;;0.60;;
41739;SDS011;27422;52.444;13.300;2023-04-02T13:44:42;2.08;;;0.50;;
41739;SDS011;27422;52.444;13.300;2023-04-02T13:47:08;3.13;;;0.65;;
41739;SDS011;27422;52.444;13.300;2023-04-02T13:49:38;2.45;;;0.60;;
41739;SDS011;27422;52.444;13.300;2023-04-02T13:52:03;2.67;;;0.60;;
41739;SDS011;27422;52.444;13.300;2023-04-02T13:54:48;3.75;;;0.80;;
41739;SDS011;27422;52.444;13.300;2023-04-02T13:57:15;2.20;;;0.50;;
41739;SDS011;27422;52.444;13.300;2023-04-02T13:59:41;2.35;;;0.70;;
41739;SDS011;27422;52.444;13.300;2023-04-02T14:02:13;2.33;;;0.60;;
41739;SDS011;27422;52.444;13.300;2023-04-02T14:04:41;4.68;;;0.82;;
41739;SDS011;27422;52.444;13.300;2023-04-02T14:21:28;2.42;;;0.43;;
41739;SDS011;27422;52.444;13.300;2023-04-02T14:26:48;1.33;;;0.40;;
41739;SDS011;27422;52.444;13.300;2023-04-02T14:49:16;5.47;;;0.50;;
41739;SDS011;27422;52.444;13.300;2023-04-02T14:51:33;2.40;;;0.60;;
41739;SDS011;27422;52.444;13.300;2023-04-02T14:56:30;0.95;;;0.45;;
41739;SDS011;27422;52.444;13.300;2023-04-02T15:01:39;3.97;;;0.98;;
41739;SDS011;27422;52.444;13.300;2023-04-02T15:04:12;1.77;;;0.60;;
41739;SDS011;27422;52.444;13.300;2023-04-02T15:06:44;3.90;;;0.75;;
41739;SDS011;27422;52.444;13.300;2023-04-02T15:09:23;2.70;;;0.40;;
41739;SDS011;27422;52.444;13.300;2023-04-02T15:15:04;3.00;;;0.70;;
41739;SDS011;27422;52.444;13.300;2023-04-02T15:17:32;1.83;;;0.57;;
41739;SDS011;27422;52.444;13.300;2023-04-02T15:20:04;2.67;;;0.70;;
41739;SDS011;27422;52.444;13.300;2023-04-02T15:22:51;2.90;;;0.80;;
41739;SDS011;27422;52.444;13.300;2023-04-02T15:25:28;2.05;;;0.52;;
41739;SDS011;27422;52.444;13.300;2023-04-02T15:28:01;2.65;;;0.50;;
41739;SDS011;27422;52.444;13.300;2023-04-02T15:30:29;2.35;;;1.13;;
41739;SDS011;27422;52.444;13.300;2023-04-02T15:35:49;4.38;;;0.90;;
41739;SDS011;27422;52.444;13.300;2023-04-02T15:38:23;3.97;;;0.60;;
41739;SDS011;27422;52.444;13.300;2023-04-02T15:40:56;2.40;;;0.50;;
41739;SDS011;27422;52.444;13.300;2023-04-02T15:43:43;5.45;;;1.02;;
41739;SDS011;27422;52.444;13.300;2023-04-02T15:52:14;2.05;;;0.60;;
41739;SDS011;27422;52.444;13.300;2023-04-02T15:54:51;2.13;;;0.52;;
41739;SDS011;27422;52.444;13.300;2023-04-02T16:00:13;1.10;;;0.47;;
41739;SDS011;27422;52.444;13.300;2023-04-02T16:05:41;2.03;;;0.73;;
41739;SDS011;27422;52.444;13.300;2023-04-02T16:08:29;1.85;;;0.57;;
41739;SDS011;27422;52.444;13.300;2023-04-02T16:10:59;2.63;;;0.50;;
41739;SDS011;27422;52.444;13.300;2023-04-02T16:16:00;1.38;;;0.50;;
41739;SDS011;27422;52.444;13.300;2023-04-02T16:21:35;2.35;;;0.80;;
41739;SDS011;27422;52.444;13.300;2023-04-02T16:24:07;3.13;;;0.60;;
41739;SDS011;27422;52.444;13.300;2023-04-02T16:32:42;1.20;;;0.40;;
41739;SDS011;27422;52.444;13.300;2023-04-02T16:38:01;1.75;;;0.60;;
41739;SDS011;27422;52.444;13.300;2023-04-02T16:43:14;3.13;;;0.70;;
41739;SDS011;27422;52.444;13.300;2023-04-02T16:45:48;2.50;;;0.73;;
41739;SDS011;27422;52.444;13.300;2023-04-02T17:07:51;3.13;;;0.68;;
41739;SDS011;27422;52.444;13.300;2023-04-02T17:10:59;1.42;;;0.50;;
41739;SDS011;27422;52.444;13.300;2023-04-02T17:15:59;2.38;;;0.52;;
41739;SDS011;27422;52.444;13.300;2023-04-02T17:18:28;2.28;;;0.60;;
41739;SDS011;27422;52.444;13.300;2023-04-02T17:20:56;2.05;;;0.60;;
41739;SDS011;27422;52.444;13.300;2023-04-02T17:23:26;2.05;;;0.55;;
41739;SDS011;27422;52.444;13.300;2023-04-02T17:25:53;4.00;;;0.85;;
41739;SDS011;27422;52.444;13.300;2023-04-02T17:28:22;2.83;;;0.63;;
41739;SDS011;27422;52.444;13.300;2023-04-02T17:30:54;3.45;;;0.70;;
41739;SDS011;27422;52.444;13.300;2023-04-02T17:33:21;3.42;;;0.73;;
41739;SDS011;27422;52.444;13.300;2023-04-02T17:41:35;3.03;;;0.75;;
41739;SDS011;27422;52.444;13.300;2023-04-02T18:07:37;2.38;;;0.80;;
41739;SDS011;27422;52.444;13.300;2023-04-02T18:21:34;2.17;;;0.75;;
41739;SDS011;27422;52.444;13.300;2023-04-02T18:27:29;6.38;;;1.38;;
41739;SDS011;27422;52.444;13.300;2023-04-02T18:49:18;2.55;;;0.90;;
41739;SDS011;27422;52.444;13.300;2023-04-02T18:52:00;5.13;;;1.00;;
41739;SDS011;27422;52.444;13.300;2023-04-02T18:56:56;2.40;;;0.90;;
41739;SDS011;27422;52.444;13.300;2023-04-02T18:59:39;3.17;;;0.80;;
41739;SDS011;27422;52.444;13.300;2023-04-02T19:02:15;8.18;;;1.00;;
41739;SDS011;27422;52.444;13.300;2023-04-02T19:05:00;5.28;;;0.90;;
41739;SDS011;27422;52.444;13.300;2023-04-02T19:07:32;2.08;;;1.00;;
41739;SDS011;27422;52.444;13.300;2023-04-02T19:10:04;2.25;;;0.80;;
41739;SDS011;27422;52.444;13.300;2023-04-02T19:15:12;4.83;;;0.83;;
41739;SDS011;27422;52.444;13.300;2023-04-02T19:17:41;4.13;;;0.75;;
41739;SDS011;27422;52.444;13.300;2023-04-02T19:28:39;2.08;;;0.93;;
41739;SDS011;27422;52.444;13.300;2023-04-02T19:31:22;2.85;;;0.80;;
41739;SDS011;27422;52.444;13.300;2023-04-02T19:33:51;4.00;;;0.98;;
41739;SDS011;27422;52.444;13.300;2023-04-02T19:41:43;5.05;;;0.60;;
41739;SDS011;27422;52.444;13.300;2023-04-02T19:44:13;2.22;;;0.63;;
41739;SDS011;27422;52.444;13.300;2023-04-02T19:46:39;3.53;;;0.65;;
41739;SDS011;27422;52.444;13.300;2023-04-02T19:49:09;2.33;;;0.80;;
41739;SDS011;27422;52.444;13.300;2023-04-02T19:51:38;3.75;;;0.80;;
41739;SDS011;27422;52.444;13.300;2023-04-02T19:54:04;3.50;;;0.93;;
41739;SDS011;27422;52.444;13.300;2023-04-02T19:56:29;3.33;;;0.73;;
41739;SDS011;27422;52.444;13.300;2023-04-02T19:58:54;2.60;;;0.77;;
41739;SDS011;27422;52.444;13.300;2023-04-02T20:01:20;4.20;;;0.98;;
41739;SDS011;27422;52.444;13.300;2023-04-02T20:03:46;5.10;;;0.80;;
41739;SDS011;27422;52.444;13.300;2023-04-02T20:06:11;4.30;;;1.02;;
41739;SDS011;27422;52.444;13.300;2023-04-02T20:08:38;4.23;;;1.13;;
41739;SDS011;27422;52.444;13.300;2023-04-02T20:11:04;6.13;;;1.20;;
41739;SDS011;27422;52.444;13.300;2023-04-02T20:13:29;4.30;;;1.10;;
41739;SDS011;27422;52.444;13.300;2023-04-02T20:15:58;4.63;;;1.02;;
41739;SDS011;27422;52.444;13.300;2023-04-02T20:18:25;4.90;;;1.00;;
41739;SDS011;27422;52.444;13.300;2023-04-02T20:20:51;1.80;;;0.73;;
41739;SDS011;27422;52.444;13.300;2023-04-02T20:23:16;1.50;;;0.60;;
41739;SDS011;27422;52.444;13.300;2023-04-02T20:25:49;5.75;;;0.90;;
41739;SDS011;27422;52.444;13.300;2023-04-02T20:28:19;3.17;;;0.80;;
41739;SDS011;27422;52.444;13.300;2023-04-02T20:30:45;4.72;;;0.95;;
41739;SDS011;27422;52.444;13.300;2023-04-02T20:33:13;3.35;;;0.82;;
41739;SDS011;27422;52.444;13.300;2023-04-02T20:35:41;3.97;;;1.23;;
41739;SDS011;27422;52.444;13.300;2023-04-02T20:38:06;1.85;;;0.75;;
41739;SDS011;27422;52.444;13.300;2023-04-02T20:40:33;3.03;;;0.85;;
41739;SDS011;27422;52.444;13.300;2023-04-02T20:42:58;3.85;;;0.80;;
41739;SDS011;27422;52.444;13.300;2023-04-02T20:45:24;4.70;;;1.00;;
41739;SDS011;27422;52.444;13.300;2023-04-02T20:47:51;3.00;;;0.90;;
41739;SDS011;27422;52.444;13.300;2023-04-02T20:50:17;3.33;;;0.88;;
41739;SDS011;27422;52.444;13.300;2023-04-02T20:52:42;3.03;;;0.75;;
41739;SDS011;27422;52.444;13.300;2023-04-02T20:55:08;6.10;;;1.30;;
41739;SDS011;27422;52.444;13.300;2023-04-02T20:57:34;2.90;;;0.80;;
41739;SDS011;27422;52.444;13.300;2023-04-02T21:00:00;6.28;;;0.88;;
41739;SDS011;27422;52.444;13.300;2023-04-02T21:02:28;3.08;;;0.70;;
41739;SDS011;27422;52.444;13.300;2023-04-02T21:04:53;3.55;;;0.77;;
41739;SDS011;27422;52.444;13.300;2023-04-02T21:07:20;2.30;;;0.88;;